sensor_id;sensor_type;location;lat;lon;timestamp;P1;durP1;ratioP1;P2;durP2;ratioP2
17372;SDS011;8803;48.116;11.590;2022-12-18T00:01:46;35.70;;;20.93;;
17372;SDS011;8803;48.116;11.590;2022-12-18T00:06:04;37.53;;;21.83;;
17372;SDS011;8803;48.116;11.590;2022-12-18T00:08:08;41.70;;;22.90;;
17372;SDS011;8803;48.116;11.590;2022-12-18T00:10:12;40.03;;;22.20;;
17372;SDS011;8803;48.116;11.590;2022-12-18T00:12:16;32.43;;;19.40;;
17372;SDS011;8803;48.116;11.590;2022-12-18T00:14:20;34.43;;;19.90;;
17372;SDS011;8803;48.116;11.590;2022-12-18T00:16:34;36.00;;;21.53;;
17372;SDS011;8803;48.116;11.590;2022-12-18T00:18:38;41.13;;;21.80;;
17372;SDS011;8803;48.116;11.590;2022-12-18T00:20:42;34.37;;;20.53;;
17372;SDS011;8803;48.116;11.590;2022-12-18T00:22:46;39.93;;;21.77;;
17372;SDS011;8803;48.116;11.590;2022-12-18T00:25:00;39.17;;;22.33;;
17372;SDS011;8803;48.116;11.590;2022-12-18T00:29:15;39.23;;;22.40;;
17372;SDS011;8803;48.116;11.590;2022-12-18T00:31:21;41.63;;;23.90;;
17372;SDS011;8803;48.116;11.590;2022-12-18T00:33:36;41.40;;;24.77;;
17372;SDS011;8803;48.116;11.590;2022-12-18T00:35:40;37.97;;;22.37;;
17372;SDS011;8803;48.116;11.590;2022-12-18T00:37:52;38.37;;;22.10;;
17372;SDS011;8803;48.116;11.590;2022-12-18T00:39:56;40.00;;;22.67;;
17372;SDS011;8803;48.116;11.590;2022-12-18T00:42:00;39.60;;;23.37;;
17372;SDS011;8803;48.116;11.590;2022-12-18T00:44:21;37.33;;;21.33;;
17372;SDS011;8803;48.116;11.590;2022-12-18T00:46:34;41.37;;;22.07;;
17372;SDS011;8803;48.116;11.590;2022-12-18T00:48:37;38.93;;;22.73;;
17372;SDS011;8803;48.116;11.590;2022-12-18T00:50:41;42.57;;;22.33;;
17372;SDS011;8803;48.116;11.590;2022-12-18T00:52:45;39.80;;;22.67;;
17372;SDS011;8803;48.116;11.590;2022-12-18T00:54:49;34.67;;;20.13;;
17372;SDS011;8803;48.116;11.590;2022-12-18T00:57:02;33.27;;;19.57;;
17372;SDS011;8803;48.116;11.590;2022-12-18T00:59:06;36.87;;;20.43;;
17372;SDS011;8803;48.116;11.590;2022-12-18T01:01:09;38.33;;;21.87;;
17372;SDS011;8803;48.116;11.590;2022-12-18T01:03:13;38.33;;;22.17;;
17372;SDS011;8803;48.116;11.590;2022-12-18T01:05:17;34.37;;;21.23;;
17372;SDS011;8803;48.116;11.590;2022-12-18T01:07:21;43.07;;;22.00;;
17372;SDS011;8803;48.116;11.590;2022-12-18T01:09:33;41.13;;;22.23;;
17372;SDS011;8803;48.116;11.590;2022-12-18T01:11:37;34.77;;;21.73;;
17372;SDS011;8803;48.116;11.590;2022-12-18T01:13:41;34.53;;;20.60;;
17372;SDS011;8803;48.116;11.590;2022-12-18T01:15:48;36.03;;;20.50;;
17372;SDS011;8803;48.116;11.590;2022-12-18T01:18:00;38.90;;;21.70;;
17372;SDS011;8803;48.116;11.590;2022-12-18T01:20:09;41.27;;;21.33;;
17372;SDS011;8803;48.116;11.590;2022-12-18T01:22:14;33.57;;;20.60;;
17372;SDS011;8803;48.116;11.590;2022-12-18T01:24:18;44.97;;;24.03;;
17372;SDS011;8803;48.116;11.590;2022-12-18T01:26:32;40.93;;;20.83;;
17372;SDS011;8803;48.116;11.590;2022-12-18T01:28:36;41.00;;;22.57;;
17372;SDS011;8803;48.116;11.590;2022-12-18T01:30:50;41.37;;;23.17;;
17372;SDS011;8803;48.116;11.590;2022-12-18T01:32:54;40.63;;;22.50;;
17372;SDS011;8803;48.116;11.590;2022-12-18T01:34:58;40.33;;;21.83;;
17372;SDS011;8803;48.116;11.590;2022-12-18T01:37:11;43.03;;;21.93;;
17372;SDS011;8803;48.116;11.590;2022-12-18T01:39:15;34.67;;;20.70;;
17372;SDS011;8803;48.116;11.590;2022-12-18T01:41:19;38.50;;;21.00;;
17372;SDS011;8803;48.116;11.590;2022-12-18T01:43:40;35.27;;;20.63;;
17372;SDS011;8803;48.116;11.590;2022-12-18T01:45:55;37.40;;;21.23;;
17372;SDS011;8803;48.116;11.590;2022-12-18T01:48:10;38.27;;;21.97;;
17372;SDS011;8803;48.116;11.590;2022-12-18T01:50:16;35.87;;;20.70;;
17372;SDS011;8803;48.116;11.590;2022-12-18T01:52:21;36.20;;;22.17;;
17372;SDS011;8803;48.116;11.590;2022-12-18T01:54:27;34.67;;;19.97;;
17372;SDS011;8803;48.116;11.590;2022-12-18T01:56:39;37.67;;;21.87;;
17372;SDS011;8803;48.116;11.590;2022-12-18T01:58:45;40.43;;;22.73;;
17372;SDS011;8803;48.116;11.590;2022-12-18T02:01:01;43.07;;;23.23;;
17372;SDS011;8803;48.116;11.590;2022-12-18T02:03:05;36.47;;;21.03;;
17372;SDS011;8803;48.116;11.590;2022-12-18T02:05:09;38.33;;;23.07;;
17372;SDS011;8803;48.116;11.590;2022-12-18T02:07:26;41.63;;;23.07;;
17372;SDS011;8803;48.116;11.590;2022-12-18T02:09:42;38.67;;;23.07;;
17372;SDS011;8803;48.116;11.590;2022-12-18T02:11:48;42.30;;;24.37;;
17372;SDS011;8803;48.116;11.590;2022-12-18T02:14:04;38.13;;;22.03;;
17372;SDS011;8803;48.116;11.590;2022-12-18T02:16:12;43.00;;;22.90;;
17372;SDS011;8803;48.116;11.590;2022-12-18T02:18:26;40.23;;;22.83;;
17372;SDS011;8803;48.116;11.590;2022-12-18T02:20:33;39.77;;;23.83;;
17372;SDS011;8803;48.116;11.590;2022-12-18T02:22:49;38.93;;;21.90;;
17372;SDS011;8803;48.116;11.590;2022-12-18T02:25:01;42.90;;;23.63;;
17372;SDS011;8803;48.116;11.590;2022-12-18T02:27:09;40.23;;;23.10;;
17372;SDS011;8803;48.116;11.590;2022-12-18T02:29:22;42.63;;;23.27;;
17372;SDS011;8803;48.116;11.590;2022-12-18T02:31:30;35.77;;;21.70;;
17372;SDS011;8803;48.116;11.590;2022-12-18T02:33:43;44.33;;;24.37;;
17372;SDS011;8803;48.116;11.590;2022-12-18T02:35:48;44.33;;;25.10;;
17372;SDS011;8803;48.116;11.590;2022-12-18T02:37:53;46.47;;;24.73;;
17372;SDS011;8803;48.116;11.590;2022-12-18T02:40:09;40.00;;;23.23;;
17372;SDS011;8803;48.116;11.590;2022-12-18T02:42:14;40.50;;;24.20;;
17372;SDS011;8803;48.116;11.590;2022-12-18T02:44:18;44.13;;;24.73;;
17372;SDS011;8803;48.116;11.590;2022-12-18T02:46:32;37.80;;;22.20;;
17372;SDS011;8803;48.116;11.590;2022-12-18T02:48:37;43.03;;;24.77;;
17372;SDS011;8803;48.116;11.590;2022-12-18T02:50:53;40.73;;;22.77;;
17372;SDS011;8803;48.116;11.590;2022-12-18T02:53:02;45.70;;;23.87;;
17372;SDS011;8803;48.116;11.590;2022-12-18T02:55:12;44.87;;;25.17;;
17372;SDS011;8803;48.116;11.590;2022-12-18T02:57:31;43.17;;;23.40;;
17372;SDS011;8803;48.116;11.590;2022-12-18T02:59:38;45.17;;;24.93;;
17372;SDS011;8803;48.116;11.590;2022-12-18T03:01:55;38.47;;;24.00;;
17372;SDS011;8803;48.116;11.590;2022-12-18T03:04:03;42.33;;;23.30;;
17372;SDS011;8803;48.116;11.590;2022-12-18T03:06:18;38.57;;;23.60;;
17372;SDS011;8803;48.116;11.590;2022-12-18T03:08:25;44.00;;;24.23;;
17372;SDS011;8803;48.116;11.590;2022-12-18T03:10:32;42.20;;;24.43;;
17372;SDS011;8803;48.116;11.590;2022-12-18T03:12:40;44.93;;;25.63;;
17372;SDS011;8803;48.116;11.590;2022-12-18T03:16:57;43.87;;;24.07;;
17372;SDS011;8803;48.116;11.590;2022-12-18T03:19:04;44.50;;;24.83;;
17372;SDS011;8803;48.116;11.590;2022-12-18T03:21:21;47.17;;;24.83;;
17372;SDS011;8803;48.116;11.590;2022-12-18T03:23:25;47.23;;;25.07;;
17372;SDS011;8803;48.116;11.590;2022-12-18T03:25:31;47.13;;;26.10;;
17372;SDS011;8803;48.116;11.590;2022-12-18T03:27:46;46.70;;;25.80;;
17372;SDS011;8803;48.116;11.590;2022-12-18T03:29:52;38.83;;;22.70;;
17372;SDS011;8803;48.116;11.590;2022-12-18T03:32:07;45.87;;;25.87;;
17372;SDS011;8803;48.116;11.590;2022-12-18T03:34:14;44.20;;;23.93;;
17372;SDS011;8803;48.116;11.590;2022-12-18T03:36:27;51.13;;;26.03;;
17372;SDS011;8803;48.116;11.590;2022-12-18T03:38:31;47.10;;;25.27;;
17372;SDS011;8803;48.116;11.590;2022-12-18T03:40:37;43.33;;;23.77;;
17372;SDS011;8803;48.116;11.590;2022-12-18T03:42:45;37.97;;;23.47;;
17372;SDS011;8803;48.116;11.590;2022-12-18T03:44:52;46.10;;;25.47;;
17372;SDS011;8803;48.116;11.590;2022-12-18T03:47:06;41.00;;;23.63;;
17372;SDS011;8803;48.116;11.590;2022-12-18T03:49:14;43.77;;;24.03;;
17372;SDS011;8803;48.116;11.590;2022-12-18T03:51:22;39.87;;;22.97;;
17372;SDS011;8803;48.116;11.590;2022-12-18T03:53:31;47.90;;;25.50;;
17372;SDS011;8803;48.116;11.590;2022-12-18T03:55:44;43.23;;;24.27;;
17372;SDS011;8803;48.116;11.590;2022-12-18T03:57:50;44.30;;;24.70;;
17372;SDS011;8803;48.116;11.590;2022-12-18T04:00:05;49.87;;;25.17;;
17372;SDS011;8803;48.116;11.590;2022-12-18T04:02:12;43.43;;;23.43;;
17372;SDS011;8803;48.116;11.590;2022-12-18T04:04:25;43.97;;;23.97;;
17372;SDS011;8803;48.116;11.590;2022-12-18T04:06:32;43.00;;;24.50;;
17372;SDS011;8803;48.116;11.590;2022-12-18T04:08:45;43.43;;;23.40;;
17372;SDS011;8803;48.116;11.590;2022-12-18T04:10:50;42.53;;;24.13;;
17372;SDS011;8803;48.116;11.590;2022-12-18T04:13:04;44.27;;;25.17;;
17372;SDS011;8803;48.116;11.590;2022-12-18T04:15:08;42.60;;;24.43;;
17372;SDS011;8803;48.116;11.590;2022-12-18T04:17:23;40.47;;;24.10;;
17372;SDS011;8803;48.116;11.590;2022-12-18T04:19:27;39.30;;;23.03;;
17372;SDS011;8803;48.116;11.590;2022-12-18T04:21:30;41.23;;;24.00;;
17372;SDS011;8803;48.116;11.590;2022-12-18T04:23:43;41.60;;;24.13;;
17372;SDS011;8803;48.116;11.590;2022-12-18T04:25:47;42.67;;;24.27;;
17372;SDS011;8803;48.116;11.590;2022-12-18T04:28:00;43.03;;;24.93;;
17372;SDS011;8803;48.116;11.590;2022-12-18T04:30:04;40.33;;;23.73;;
17372;SDS011;8803;48.116;11.590;2022-12-18T04:32:09;43.83;;;25.90;;
17372;SDS011;8803;48.116;11.590;2022-12-18T04:34:13;41.03;;;24.30;;
17372;SDS011;8803;48.116;11.590;2022-12-18T04:36:29;38.47;;;22.67;;
17372;SDS011;8803;48.116;11.590;2022-12-18T04:38:33;36.47;;;21.47;;
17372;SDS011;8803;48.116;11.590;2022-12-18T04:40:37;35.30;;;21.43;;
17372;SDS011;8803;48.116;11.590;2022-12-18T04:42:41;35.63;;;21.17;;
17372;SDS011;8803;48.116;11.590;2022-12-18T04:44:54;39.20;;;21.80;;
17372;SDS011;8803;48.116;11.590;2022-12-18T04:46:58;36.13;;;20.50;;
17372;SDS011;8803;48.116;11.590;2022-12-18T04:49:11;34.87;;;21.67;;
17372;SDS011;8803;48.116;11.590;2022-12-18T04:51:15;36.57;;;20.33;;
17372;SDS011;8803;48.116;11.590;2022-12-18T04:53:19;37.07;;;21.70;;
17372;SDS011;8803;48.116;11.590;2022-12-18T04:55:22;41.20;;;22.20;;
17372;SDS011;8803;48.116;11.590;2022-12-18T04:57:35;38.77;;;23.03;;
17372;SDS011;8803;48.116;11.590;2022-12-18T04:59:39;40.80;;;23.33;;
17372;SDS011;8803;48.116;11.590;2022-12-18T05:01:43;36.67;;;22.10;;
17372;SDS011;8803;48.116;11.590;2022-12-18T05:03:47;35.83;;;21.53;;
17372;SDS011;8803;48.116;11.590;2022-12-18T05:05:51;38.47;;;21.67;;
17372;SDS011;8803;48.116;11.590;2022-12-18T05:07:54;39.13;;;21.10;;
17372;SDS011;8803;48.116;11.590;2022-12-18T05:10:07;33.27;;;19.90;;
17372;SDS011;8803;48.116;11.590;2022-12-18T05:12:11;37.57;;;20.50;;
17372;SDS011;8803;48.116;11.590;2022-12-18T05:14:27;31.70;;;18.80;;
17372;SDS011;8803;48.116;11.590;2022-12-18T05:16:31;35.80;;;19.97;;
17372;SDS011;8803;48.116;11.590;2022-12-18T05:18:43;34.87;;;20.50;;
17372;SDS011;8803;48.116;11.590;2022-12-18T05:20:47;34.10;;;20.03;;
17372;SDS011;8803;48.116;11.590;2022-12-18T05:22:52;34.83;;;21.37;;
17372;SDS011;8803;48.116;11.590;2022-12-18T05:27:08;36.23;;;20.23;;
17372;SDS011;8803;48.116;11.590;2022-12-18T05:29:12;36.20;;;20.53;;
17372;SDS011;8803;48.116;11.590;2022-12-18T05:31:25;35.30;;;20.83;;
17372;SDS011;8803;48.116;11.590;2022-12-18T05:33:29;36.80;;;20.93;;
17372;SDS011;8803;48.116;11.590;2022-12-18T05:35:44;32.27;;;20.20;;
17372;SDS011;8803;48.116;11.590;2022-12-18T05:37:49;37.67;;;21.10;;
17372;SDS011;8803;48.116;11.590;2022-12-18T05:39:53;34.33;;;19.93;;
17372;SDS011;8803;48.116;11.590;2022-12-18T05:42:05;33.93;;;21.03;;
17372;SDS011;8803;48.116;11.590;2022-12-18T05:44:09;35.27;;;20.67;;
17372;SDS011;8803;48.116;11.590;2022-12-18T05:46:22;31.47;;;19.90;;
17372;SDS011;8803;48.116;11.590;2022-12-18T05:48:26;33.33;;;19.07;;
17372;SDS011;8803;48.116;11.590;2022-12-18T05:50:30;35.57;;;20.70;;
17372;SDS011;8803;48.116;11.590;2022-12-18T05:52:42;31.60;;;19.97;;
17372;SDS011;8803;48.116;11.590;2022-12-18T05:54:46;36.17;;;20.23;;
17372;SDS011;8803;48.116;11.590;2022-12-18T05:56:59;34.53;;;20.17;;
17372;SDS011;8803;48.116;11.590;2022-12-18T06:01:15;31.23;;;19.10;;
17372;SDS011;8803;48.116;11.590;2022-12-18T06:03:20;33.03;;;20.30;;
17372;SDS011;8803;48.116;11.590;2022-12-18T06:05:24;36.27;;;20.70;;
17372;SDS011;8803;48.116;11.590;2022-12-18T06:07:37;33.40;;;19.47;;
17372;SDS011;8803;48.116;11.590;2022-12-18T06:09:41;34.00;;;18.73;;
17372;SDS011;8803;48.116;11.590;2022-12-18T06:11:45;35.80;;;19.03;;
17372;SDS011;8803;48.116;11.590;2022-12-18T06:13:50;32.03;;;19.17;;
17372;SDS011;8803;48.116;11.590;2022-12-18T06:16:03;32.60;;;18.27;;
17372;SDS011;8803;48.116;11.590;2022-12-18T06:18:19;38.97;;;20.83;;
17372;SDS011;8803;48.116;11.590;2022-12-18T06:20:23;27.53;;;16.87;;
17372;SDS011;8803;48.116;11.590;2022-12-18T06:22:27;29.30;;;18.53;;
17372;SDS011;8803;48.116;11.590;2022-12-18T06:24:32;30.77;;;19.77;;
17372;SDS011;8803;48.116;11.590;2022-12-18T06:26:45;34.03;;;20.37;;
17372;SDS011;8803;48.116;11.590;2022-12-18T06:28:49;33.40;;;20.33;;
17372;SDS011;8803;48.116;11.590;2022-12-18T06:30:53;37.67;;;21.03;;
17372;SDS011;8803;48.116;11.590;2022-12-18T06:32:56;28.83;;;18.67;;
17372;SDS011;8803;48.116;11.590;2022-12-18T06:35:00;34.87;;;20.43;;
17372;SDS011;8803;48.116;11.590;2022-12-18T06:37:14;38.20;;;21.63;;
17372;SDS011;8803;48.116;11.590;2022-12-18T06:39:18;33.93;;;19.27;;
17372;SDS011;8803;48.116;11.590;2022-12-18T06:41:31;33.60;;;19.50;;
17372;SDS011;8803;48.116;11.590;2022-12-18T06:43:34;31.60;;;18.23;;
17372;SDS011;8803;48.116;11.590;2022-12-18T06:47:50;32.90;;;18.80;;
17372;SDS011;8803;48.116;11.590;2022-12-18T06:49:54;34.60;;;20.70;;
17372;SDS011;8803;48.116;11.590;2022-12-18T06:52:09;35.23;;;20.53;;
17372;SDS011;8803;48.116;11.590;2022-12-18T06:54:13;35.10;;;19.37;;
17372;SDS011;8803;48.116;11.590;2022-12-18T06:56:26;33.97;;;19.10;;
17372;SDS011;8803;48.116;11.590;2022-12-18T06:58:30;34.00;;;20.33;;
17372;SDS011;8803;48.116;11.590;2022-12-18T07:00:34;29.60;;;19.13;;
17372;SDS011;8803;48.116;11.590;2022-12-18T07:02:50;34.63;;;19.60;;
17372;SDS011;8803;48.116;11.590;2022-12-18T07:04:53;31.37;;;19.67;;
17372;SDS011;8803;48.116;11.590;2022-12-18T07:07:06;32.10;;;17.93;;
17372;SDS011;8803;48.116;11.590;2022-12-18T07:09:10;33.93;;;18.97;;
17372;SDS011;8803;48.116;11.590;2022-12-18T07:11:14;33.03;;;18.97;;
17372;SDS011;8803;48.116;11.590;2022-12-18T07:13:18;34.40;;;18.87;;
17372;SDS011;8803;48.116;11.590;2022-12-18T07:15:22;34.23;;;19.60;;
17372;SDS011;8803;48.116;11.590;2022-12-18T07:17:35;33.00;;;18.97;;
17372;SDS011;8803;48.116;11.590;2022-12-18T07:19:39;35.90;;;19.63;;
17372;SDS011;8803;48.116;11.590;2022-12-18T07:21:42;30.00;;;17.97;;
17372;SDS011;8803;48.116;11.590;2022-12-18T07:23:56;33.37;;;18.77;;
17372;SDS011;8803;48.116;11.590;2022-12-18T07:26:01;31.63;;;18.73;;
17372;SDS011;8803;48.116;11.590;2022-12-18T07:28:14;33.63;;;19.93;;
17372;SDS011;8803;48.116;11.590;2022-12-18T07:30:18;34.57;;;18.73;;
17372;SDS011;8803;48.116;11.590;2022-12-18T07:32:30;31.50;;;18.27;;
17372;SDS011;8803;48.116;11.590;2022-12-18T07:34:36;33.77;;;19.43;;
17372;SDS011;8803;48.116;11.590;2022-12-18T07:36:49;32.30;;;17.83;;
17372;SDS011;8803;48.116;11.590;2022-12-18T07:38:53;30.00;;;18.47;;
17372;SDS011;8803;48.116;11.590;2022-12-18T07:41:00;33.63;;;19.67;;
17372;SDS011;8803;48.116;11.590;2022-12-18T07:43:04;35.73;;;19.23;;
17372;SDS011;8803;48.116;11.590;2022-12-18T07:45:09;31.00;;;17.60;;
17372;SDS011;8803;48.116;11.590;2022-12-18T07:47:23;32.13;;;19.20;;
17372;SDS011;8803;48.116;11.590;2022-12-18T07:49:27;29.20;;;16.80;;
17372;SDS011;8803;48.116;11.590;2022-12-18T07:51:31;30.53;;;18.43;;
17372;SDS011;8803;48.116;11.590;2022-12-18T07:53:35;35.27;;;19.47;;
17372;SDS011;8803;48.116;11.590;2022-12-18T07:55:39;30.17;;;18.40;;
17372;SDS011;8803;48.116;11.590;2022-12-18T07:57:52;35.60;;;18.13;;
17372;SDS011;8803;48.116;11.590;2022-12-18T07:59:56;32.13;;;20.00;;
17372;SDS011;8803;48.116;11.590;2022-12-18T08:02:08;30.27;;;17.90;;
17372;SDS011;8803;48.116;11.590;2022-12-18T08:04:12;28.47;;;17.13;;
17372;SDS011;8803;48.116;11.590;2022-12-18T08:06:25;35.07;;;19.13;;
17372;SDS011;8803;48.116;11.590;2022-12-18T08:08:28;28.63;;;16.63;;
17372;SDS011;8803;48.116;11.590;2022-12-18T08:10:33;29.00;;;17.53;;
17372;SDS011;8803;48.116;11.590;2022-12-18T08:12:36;30.90;;;18.57;;
17372;SDS011;8803;48.116;11.590;2022-12-18T08:14:40;34.57;;;19.03;;
17372;SDS011;8803;48.116;11.590;2022-12-18T08:16:54;30.60;;;17.47;;
17372;SDS011;8803;48.116;11.590;2022-12-18T08:18:58;31.73;;;18.60;;
17372;SDS011;8803;48.116;11.590;2022-12-18T08:21:08;30.90;;;19.03;;
17372;SDS011;8803;48.116;11.590;2022-12-18T08:23:12;28.03;;;17.37;;
17372;SDS011;8803;48.116;11.590;2022-12-18T08:25:16;32.37;;;18.07;;
17372;SDS011;8803;48.116;11.590;2022-12-18T08:27:28;28.40;;;17.97;;
17372;SDS011;8803;48.116;11.590;2022-12-18T08:29:32;33.83;;;18.33;;
17372;SDS011;8803;48.116;11.590;2022-12-18T08:31:36;28.37;;;16.40;;
17372;SDS011;8803;48.116;11.590;2022-12-18T08:33:50;27.73;;;17.53;;
17372;SDS011;8803;48.116;11.590;2022-12-18T08:35:55;30.97;;;18.77;;
17372;SDS011;8803;48.116;11.590;2022-12-18T08:38:09;31.47;;;17.70;;
17372;SDS011;8803;48.116;11.590;2022-12-18T08:42:25;29.40;;;18.37;;
17372;SDS011;8803;48.116;11.590;2022-12-18T08:46:59;30.07;;;17.80;;
17372;SDS011;8803;48.116;11.590;2022-12-18T08:49:03;26.83;;;17.03;;
17372;SDS011;8803;48.116;11.590;2022-12-18T08:51:16;34.57;;;18.43;;
17372;SDS011;8803;48.116;11.590;2022-12-18T08:53:21;32.13;;;17.57;;
17372;SDS011;8803;48.116;11.590;2022-12-18T08:55:25;28.70;;;17.07;;
17372;SDS011;8803;48.116;11.590;2022-12-18T08:57:38;30.83;;;18.30;;
17372;SDS011;8803;48.116;11.590;2022-12-18T08:59:42;26.47;;;16.23;;
17372;SDS011;8803;48.116;11.590;2022-12-18T09:01:46;30.43;;;17.30;;
17372;SDS011;8803;48.116;11.590;2022-12-18T09:03:50;27.93;;;17.83;;
17372;SDS011;8803;48.116;11.590;2022-12-18T09:05:54;26.77;;;16.83;;
17372;SDS011;8803;48.116;11.590;2022-12-18T09:08:08;25.73;;;16.13;;
17372;SDS011;8803;48.116;11.590;2022-12-18T09:10:12;27.80;;;16.80;;
17372;SDS011;8803;48.116;11.590;2022-12-18T09:12:16;32.47;;;18.90;;
17372;SDS011;8803;48.116;11.590;2022-12-18T09:14:28;26.63;;;16.20;;
17372;SDS011;8803;48.116;11.590;2022-12-18T09:16:32;30.77;;;17.17;;
17372;SDS011;8803;48.116;11.590;2022-12-18T09:18:45;28.03;;;17.33;;
17372;SDS011;8803;48.116;11.590;2022-12-18T09:20:49;28.70;;;17.77;;
17372;SDS011;8803;48.116;11.590;2022-12-18T09:22:54;30.90;;;18.03;;
17372;SDS011;8803;48.116;11.590;2022-12-18T09:24:58;30.83;;;17.10;;
17372;SDS011;8803;48.116;11.590;2022-12-18T09:27:10;29.60;;;16.93;;
17372;SDS011;8803;48.116;11.590;2022-12-18T09:29:14;31.90;;;18.37;;
17372;SDS011;8803;48.116;11.590;2022-12-18T09:31:19;27.10;;;16.60;;
17372;SDS011;8803;48.116;11.590;2022-12-18T09:33:24;25.67;;;16.27;;
17372;SDS011;8803;48.116;11.590;2022-12-18T09:37:39;28.87;;;16.73;;
17372;SDS011;8803;48.116;11.590;2022-12-18T09:39:43;30.33;;;17.30;;
17372;SDS011;8803;48.116;11.590;2022-12-18T09:41:56;26.77;;;15.80;;
17372;SDS011;8803;48.116;11.590;2022-12-18T09:46:15;28.53;;;17.43;;
17372;SDS011;8803;48.116;11.590;2022-12-18T09:48:23;28.70;;;17.93;;
17372;SDS011;8803;48.116;11.590;2022-12-18T09:50:29;30.30;;;17.20;;
17372;SDS011;8803;48.116;11.590;2022-12-18T09:52:43;29.60;;;17.57;;
17372;SDS011;8803;48.116;11.590;2022-12-18T09:57:01;30.63;;;17.97;;
17372;SDS011;8803;48.116;11.590;2022-12-18T09:59:05;27.90;;;16.70;;
17372;SDS011;8803;48.116;11.590;2022-12-18T10:01:12;32.37;;;18.10;;
17372;SDS011;8803;48.116;11.590;2022-12-18T10:03:19;31.43;;;18.13;;
17372;SDS011;8803;48.116;11.590;2022-12-18T10:05:26;28.80;;;16.57;;
17372;SDS011;8803;48.116;11.590;2022-12-18T10:07:34;28.17;;;17.00;;
17372;SDS011;8803;48.116;11.590;2022-12-18T10:09:57;27.17;;;16.90;;
17372;SDS011;8803;48.116;11.590;2022-12-18T10:12:04;24.70;;;16.07;;
17372;SDS011;8803;48.116;11.590;2022-12-18T10:14:19;33.43;;;18.03;;
17372;SDS011;8803;48.116;11.590;2022-12-18T10:16:25;27.87;;;16.77;;
17372;SDS011;8803;48.116;11.590;2022-12-18T10:18:36;27.47;;;16.47;;
17372;SDS011;8803;48.116;11.590;2022-12-18T10:20:51;26.60;;;16.27;;
17372;SDS011;8803;48.116;11.590;2022-12-18T10:22:59;24.17;;;15.07;;
17372;SDS011;8803;48.116;11.590;2022-12-18T10:25:05;24.70;;;15.47;;
17372;SDS011;8803;48.116;11.590;2022-12-18T10:27:21;25.10;;;15.83;;
17372;SDS011;8803;48.116;11.590;2022-12-18T10:29:25;28.33;;;16.43;;
17372;SDS011;8803;48.116;11.590;2022-12-18T10:31:38;26.00;;;15.50;;
17372;SDS011;8803;48.116;11.590;2022-12-18T10:33:42;29.87;;;16.33;;
17372;SDS011;8803;48.116;11.590;2022-12-18T10:35:55;27.93;;;17.57;;
17372;SDS011;8803;48.116;11.590;2022-12-18T10:38:00;27.53;;;15.87;;
17372;SDS011;8803;48.116;11.590;2022-12-18T10:40:16;24.17;;;15.97;;
17372;SDS011;8803;48.116;11.590;2022-12-18T10:42:22;25.53;;;15.80;;
17372;SDS011;8803;48.116;11.590;2022-12-18T10:44:26;26.93;;;17.07;;
17372;SDS011;8803;48.116;11.590;2022-12-18T10:46:40;27.87;;;15.93;;
17372;SDS011;8803;48.116;11.590;2022-12-18T10:48:51;29.30;;;16.77;;
17372;SDS011;8803;48.116;11.590;2022-12-18T10:51:06;26.00;;;15.53;;
17372;SDS011;8803;48.116;11.590;2022-12-18T10:53:15;26.77;;;16.40;;
17372;SDS011;8803;48.116;11.590;2022-12-18T10:55:31;28.83;;;16.23;;
17372;SDS011;8803;48.116;11.590;2022-12-18T10:57:38;24.63;;;15.53;;
17372;SDS011;8803;48.116;11.590;2022-12-18T10:59:52;25.10;;;15.60;;
17372;SDS011;8803;48.116;11.590;2022-12-18T11:01:57;28.43;;;17.07;;
17372;SDS011;8803;48.116;11.590;2022-12-18T11:04:02;25.67;;;16.23;;
17372;SDS011;8803;48.116;11.590;2022-12-18T11:06:11;32.10;;;17.70;;
17372;SDS011;8803;48.116;11.590;2022-12-18T11:08:24;28.03;;;16.67;;
17372;SDS011;8803;48.116;11.590;2022-12-18T11:10:30;28.67;;;15.70;;
17372;SDS011;8803;48.116;11.590;2022-12-18T11:12:46;25.53;;;15.90;;
17372;SDS011;8803;48.116;11.590;2022-12-18T11:14:50;28.43;;;16.50;;
17372;SDS011;8803;48.116;11.590;2022-12-18T11:17:04;24.43;;;15.00;;
17372;SDS011;8803;48.116;11.590;2022-12-18T11:19:14;29.87;;;16.70;;
17372;SDS011;8803;48.116;11.590;2022-12-18T11:21:25;25.73;;;15.60;;
17372;SDS011;8803;48.116;11.590;2022-12-18T11:23:28;25.80;;;14.97;;
17372;SDS011;8803;48.116;11.590;2022-12-18T11:25:32;23.37;;;15.00;;
17372;SDS011;8803;48.116;11.590;2022-12-18T11:27:47;27.40;;;16.40;;
17372;SDS011;8803;48.116;11.590;2022-12-18T11:30:06;25.87;;;15.53;;
17372;SDS011;8803;48.116;11.590;2022-12-18T11:32:26;26.80;;;15.90;;
17372;SDS011;8803;48.116;11.590;2022-12-18T11:34:32;26.47;;;16.40;;
17372;SDS011;8803;48.116;11.590;2022-12-18T11:36:48;24.40;;;16.03;;
17372;SDS011;8803;48.116;11.590;2022-12-18T11:38:52;27.60;;;15.43;;
17372;SDS011;8803;48.116;11.590;2022-12-18T11:41:01;25.73;;;15.30;;
17372;SDS011;8803;48.116;11.590;2022-12-18T11:43:14;26.73;;;15.50;;
17372;SDS011;8803;48.116;11.590;2022-12-18T11:45:27;25.57;;;16.13;;
17372;SDS011;8803;48.116;11.590;2022-12-18T11:47:43;24.07;;;15.63;;
17372;SDS011;8803;48.116;11.590;2022-12-18T11:49:48;29.37;;;16.77;;
17372;SDS011;8803;48.116;11.590;2022-12-18T11:51:53;26.30;;;16.20;;
17372;SDS011;8803;48.116;11.590;2022-12-18T11:54:10;27.13;;;16.50;;
17372;SDS011;8803;48.116;11.590;2022-12-18T11:56:24;29.43;;;17.90;;
17372;SDS011;8803;48.116;11.590;2022-12-18T11:58:41;25.40;;;16.43;;
17372;SDS011;8803;48.116;11.590;2022-12-18T12:00:49;27.27;;;15.83;;
17372;SDS011;8803;48.116;11.590;2022-12-18T12:07:52;29.40;;;16.47;;
17372;SDS011;8803;48.116;11.590;2022-12-18T12:10:01;26.60;;;16.90;;
17372;SDS011;8803;48.116;11.590;2022-12-18T12:12:20;28.57;;;15.80;;
17372;SDS011;8803;48.116;11.590;2022-12-18T12:14:38;25.47;;;15.93;;
17372;SDS011;8803;48.116;11.590;2022-12-18T12:16:48;28.80;;;17.93;;
17372;SDS011;8803;48.116;11.590;2022-12-18T12:19:00;31.10;;;17.43;;
17372;SDS011;8803;48.116;11.590;2022-12-18T12:21:23;24.00;;;14.40;;
17372;SDS011;8803;48.116;11.590;2022-12-18T12:23:32;26.07;;;15.53;;
17372;SDS011;8803;48.116;11.590;2022-12-18T12:25:50;27.83;;;16.10;;
17372;SDS011;8803;48.116;11.590;2022-12-18T12:27:57;24.13;;;15.50;;
17372;SDS011;8803;48.116;11.590;2022-12-18T12:30:16;23.30;;;14.33;;
17372;SDS011;8803;48.116;11.590;2022-12-18T12:32:25;23.40;;;15.03;;
17372;SDS011;8803;48.116;11.590;2022-12-18T12:34:41;23.27;;;14.80;;
17372;SDS011;8803;48.116;11.590;2022-12-18T12:39:01;22.20;;;14.60;;
17372;SDS011;8803;48.116;11.590;2022-12-18T12:41:09;28.20;;;16.50;;
17372;SDS011;8803;48.116;11.590;2022-12-18T12:43:25;23.00;;;14.90;;
17372;SDS011;8803;48.116;11.590;2022-12-18T12:45:34;25.90;;;15.47;;
17372;SDS011;8803;48.116;11.590;2022-12-18T12:47:49;24.13;;;15.40;;
17372;SDS011;8803;48.116;11.590;2022-12-18T12:49:54;22.73;;;13.53;;
17372;SDS011;8803;48.116;11.590;2022-12-18T12:52:10;21.13;;;13.53;;
17372;SDS011;8803;48.116;11.590;2022-12-18T12:54:17;23.40;;;14.47;;
17372;SDS011;8803;48.116;11.590;2022-12-18T12:56:24;21.47;;;13.77;;
17372;SDS011;8803;48.116;11.590;2022-12-18T12:58:31;24.47;;;15.67;;
17372;SDS011;8803;48.116;11.590;2022-12-18T13:00:46;23.93;;;14.17;;
17372;SDS011;8803;48.116;11.590;2022-12-18T13:02:56;23.70;;;14.07;;